createdAt,value
2023-03-25T00:00:38.860Z,99.99
2023-03-25T00:01:38.868Z,99.99
2023-03-25T00:02:38.958Z,99.99
2023-03-25T00:03:38.876Z,99.99
2023-03-25T00:04:38.901Z,99.99
2023-03-25T00:05:38.881Z,99.99
2023-03-25T00:06:38.909Z,99.99
2023-03-25T00:07:38.894Z,99.99
2023-03-25T00:08:38.905Z,99.99
2023-03-25T00:09:38.902Z,99.99
2023-03-25T00:10:38.911Z,99.99
2023-03-25T00:11:38.910Z,99.99
2023-03-25T00:12:38.921Z,99.99
2023-03-25T00:13:38.930Z,99.99
2023-03-25T00:14:38.932Z,99.99
2023-03-25T00:15:38.931Z,99.99
2023-03-25T00:16:38.997Z,99.99
2023-03-25T00:17:38.982Z,99.99
2023-03-25T00:18:38.948Z,99.99
2023-03-25T00:19:38.948Z,98.82
2023-03-25T00:20:38.958Z,99.99
2023-03-25T00:21:38.958Z,99.99
2023-03-25T00:22:38.986Z,99.99
2023-03-25T00:23:38.973Z,99.99
2023-03-25T00:24:38.978Z,99.99
2023-03-25T00:25:38.977Z,99.99
2023-03-25T00:26:38.987Z,99.99
2023-03-25T00:27:38.988Z,99.99
2023-03-25T00:28:39.137Z,99.99
2023-03-25T00:29:39.000Z,99.99
2023-03-25T00:30:39.013Z,99.99
2023-03-25T00:31:39.006Z,99.99
2023-03-25T00:32:39.021Z,99.99
2023-03-25T00:33:39.016Z,99.99
2023-03-25T00:34:39.026Z,99.99
2023-03-25T00:35:39.085Z,99.99
2023-03-25T00:36:39.033Z,99.99
2023-03-25T00:37:39.033Z,99.99
2023-03-25T00:38:39.066Z,99.99
2023-03-25T00:39:39.045Z,99.99
2023-03-25T00:40:39.049Z,99.99
2023-03-25T00:41:39.054Z,99.99
2023-03-25T00:42:39.065Z,99.99
2023-03-25T00:43:39.133Z,99.99
2023-03-25T00:44:39.071Z,99.99
2023-03-25T00:45:39.080Z,99.99
2023-03-25T00:46:39.177Z,99.99
2023-03-25T00:47:39.140Z,99.99
2023-03-25T00:48:39.090Z,99.99
2023-03-25T00:49:39.094Z,99.99
2023-03-25T00:50:39.098Z,99.99
2023-03-25T00:51:52.671Z,99.99
2023-03-25T00:52:39.120Z,99.99
2023-03-25T00:53:39.105Z,99.99
2023-03-25T00:54:39.134Z,98.34
2023-03-25T00:55:39.120Z,93.04
2023-03-25T00:56:39.157Z,91.91
2023-03-25T00:57:39.135Z,89.25
2023-03-25T00:58:39.141Z,88.87
2023-03-25T00:59:39.134Z,91.43
2023-03-25T01:00:39.144Z,90.96
2023-03-25T01:01:39.205Z,91.43
2023-03-25T01:02:39.401Z,88.31
2023-03-25T01:03:39.269Z,88.31
2023-03-25T01:04:41.536Z,88.21
2023-03-25T01:05:39.157Z,86.41
2023-03-25T01:06:39.171Z,86.74
2023-03-25T01:07:39.171Z,87.65
2023-03-25T01:08:39.191Z,89.92
2023-03-25T01:09:39.201Z,91.53
2023-03-25T01:10:39.203Z,92.94
2023-03-25T01:11:39.186Z,94.56
2023-03-25T01:12:39.211Z,91.53
2023-03-25T01:13:39.201Z,89.63
2023-03-25T01:14:39.211Z,90.30
2023-03-25T01:15:39.230Z,94.74
2023-03-25T01:16:39.212Z,90.67
2023-03-25T01:17:39.285Z,91.34
2023-03-25T01:18:39.221Z,92.19
2023-03-25T01:19:39.241Z,95.03
2023-03-25T01:20:39.227Z,96.54
2023-03-25T01:21:39.248Z,95.59
2023-03-25T01:22:39.243Z,97.39
2023-03-25T01:23:39.245Z,97.02
2023-03-25T01:24:39.258Z,97.49
2023-03-25T01:25:39.259Z,98.91
2023-03-25T01:26:39.275Z,99.99
2023-03-25T01:27:39.256Z,99.99
2023-03-25T01:28:39.266Z,99.99
2023-03-25T01:29:39.275Z,99.99
2023-03-25T01:30:39.285Z,99.99
2023-03-25T01:31:39.326Z,99.99
2023-03-25T01:32:39.356Z,99.99
2023-03-25T01:33:39.282Z,99.99
2023-03-25T01:34:39.292Z,99.99
2023-03-25T01:35:39.337Z,99.99
2023-03-25T01:36:39.302Z,99.99
2023-03-25T01:37:39.305Z,99.99
2023-03-25T01:38:39.316Z,99.99
2023-03-25T01:39:39.314Z,99.99
2023-03-25T01:40:39.325Z,99.99
2023-03-25T01:41:49.103Z,99.99
2023-03-25T01:42:39.346Z,99.99
2023-03-25T01:43:39.330Z,99.99
2023-03-25T01:44:39.332Z,99.99
2023-03-25T01:45:39.335Z,99.99
2023-03-25T01:46:39.388Z,99.99
2023-03-25T01:47:39.385Z,99.99
2023-03-25T01:48:39.369Z,99.99
2023-03-25T01:49:39.408Z,99.99
2023-03-25T01:50:39.364Z,99.99
2023-03-25T01:51:39.371Z,99.99
2023-03-25T01:52:39.372Z,99.99
2023-03-25T01:53:39.370Z,99.99
2023-03-25T01:54:39.380Z,99.99
2023-03-25T01:55:39.382Z,99.99
2023-03-25T01:56:39.398Z,99.99
2023-03-25T01:57:39.392Z,99.99
2023-03-25T01:58:39.417Z,99.99
2023-03-25T01:59:39.397Z,99.99
2023-03-25T02:00:39.488Z,99.99
2023-03-25T02:01:39.404Z,99.99
2023-03-25T02:02:39.450Z,99.99
2023-03-25T02:03:39.451Z,99.99
2023-03-25T02:04:39.564Z,99.99
2023-03-25T02:05:39.421Z,99.99
2023-03-25T02:06:39.445Z,99.99
2023-03-25T02:07:39.439Z,99.99
2023-03-25T02:08:39.454Z,99.99
2023-03-25T02:09:39.464Z,99.99
2023-03-25T02:10:39.446Z,99.99
2023-03-25T02:11:39.449Z,99.99
2023-03-25T02:12:39.459Z,99.99
2023-03-25T02:13:39.457Z,99.99
2023-03-25T02:14:39.487Z,99.99
2023-03-25T02:15:39.465Z,99.99
2023-03-25T02:16:39.515Z,99.99
2023-03-25T02:17:39.523Z,99.99
2023-03-25T02:18:39.482Z,99.99
2023-03-25T02:19:39.494Z,99.99
2023-03-25T02:20:39.489Z,99.99
2023-03-25T02:21:39.489Z,99.99
2023-03-25T02:22:39.494Z,99.99
2023-03-25T02:23:39.498Z,99.99
2023-03-25T02:24:39.506Z,99.99
2023-03-25T02:25:39.507Z,99.99
2023-03-25T02:26:39.531Z,99.99
2023-03-25T02:27:39.517Z,99.99
2023-03-25T02:28:39.533Z,99.99
2023-03-25T02:29:39.523Z,99.99
2023-03-25T02:30:39.552Z,99.99
2023-03-25T02:31:39.553Z,99.99
2023-03-25T02:32:39.580Z,99.99
2023-03-25T02:33:39.547Z,99.99
2023-03-25T02:34:39.588Z,99.99
2023-03-25T02:35:39.587Z,99.99
2023-03-25T02:36:39.558Z,99.99
2023-03-25T02:37:39.559Z,99.99
2023-03-25T02:38:39.564Z,99.99
2023-03-25T02:39:39.572Z,99.62
2023-03-25T02:40:39.569Z,96.78
2023-03-25T02:41:39.581Z,95.26
2023-03-25T02:42:39.581Z,95.17
2023-03-25T02:43:39.580Z,95.17
2023-03-25T02:44:39.587Z,95.55
2023-03-25T02:45:39.655Z,92.71
2023-03-25T02:46:39.612Z,90.72
2023-03-25T02:47:39.652Z,90.06
2023-03-25T02:48:39.607Z,88.83
2023-03-25T02:49:39.604Z,88.83
2023-03-25T02:50:39.612Z,90.82
2023-03-25T02:51:39.612Z,91.39
2023-03-25T02:52:39.630Z,89.69
2023-03-25T02:53:39.618Z,90.91
2023-03-25T02:54:39.657Z,92.05
2023-03-25T02:55:39.626Z,93.85
2023-03-25T02:56:39.644Z,96.31
2023-03-25T02:57:39.633Z,91.96
2023-03-25T02:58:39.652Z,89.97
2023-03-25T02:59:39.643Z,88.45
2023-03-25T03:00:39.651Z,88.93
2023-03-25T03:01:39.693Z,87.51
2023-03-25T03:02:39.768Z,81.74
2023-03-25T03:03:39.681Z,80.32
2023-03-25T03:04:39.667Z,80.88
2023-03-25T03:05:39.667Z,80.79
2023-03-25T03:06:39.674Z,82.87
2023-03-25T03:07:39.675Z,87.32
2023-03-25T03:08:39.685Z,89.59
2023-03-25T03:09:39.686Z,89.21
2023-03-25T03:10:39.692Z,90.63
2023-03-25T03:11:39.696Z,91.86
2023-03-25T03:12:39.698Z,89.12
2023-03-25T03:13:39.698Z,88.36
2023-03-25T03:14:39.707Z,85.71
2023-03-25T03:15:39.712Z,84.48
2023-03-25T03:16:39.769Z,84.29
2023-03-25T03:17:39.801Z,84.67
2023-03-25T03:18:39.773Z,84.20
2023-03-25T03:19:39.725Z,84.95
2023-03-25T03:20:39.733Z,84.95
2023-03-25T03:21:39.734Z,86.75
2023-03-25T03:22:39.740Z,86.66
2023-03-25T03:23:39.743Z,87.41
2023-03-25T03:24:39.764Z,88.45
2023-03-25T03:25:39.753Z,87.51
2023-03-25T03:26:39.754Z,84.86
2023-03-25T03:27:39.767Z,82.21
2023-03-25T03:28:39.820Z,81.55
2023-03-25T03:29:39.778Z,81.74
2023-03-25T03:30:39.800Z,81.93
2023-03-25T03:31:52.159Z,81.55
2023-03-25T03:32:39.824Z,80.88
2023-03-25T03:33:39.795Z,82.40
2023-03-25T03:34:39.813Z,84.29
2023-03-25T03:35:39.830Z,85.24
2023-03-25T03:36:39.814Z,85.57
2023-03-25T03:37:39.812Z,84.01
2023-03-25T03:38:39.810Z,84.52
2023-03-25T03:39:39.818Z,84.71
2023-03-25T03:40:39.827Z,85.09
2023-03-25T03:41:39.828Z,85.05
2023-03-25T03:42:39.833Z,85.09
2023-03-25T03:43:39.838Z,85.47
2023-03-25T03:44:39.866Z,83.86
2023-03-25T03:45:39.847Z,80.98
2023-03-25T03:46:39.888Z,82.53
2023-03-25T03:47:39.887Z,81.87
2023-03-25T03:48:39.857Z,81.17
2023-03-25T03:49:39.866Z,84.20
2023-03-25T03:50:39.885Z,87.41
2023-03-25T03:51:39.877Z,87.70
2023-03-25T03:52:39.876Z,91.48
2023-03-25T03:53:39.888Z,93.28
2023-03-25T03:54:39.885Z,96.69
2023-03-25T03:55:39.894Z,99.99
2023-03-25T03:56:39.952Z,99.99
2023-03-25T03:57:39.911Z,99.99
2023-03-25T03:58:39.902Z,99.99
2023-03-25T03:59:39.918Z,99.99
2023-03-25T04:00:39.913Z,99.99
2023-03-25T04:01:39.942Z,99.99
2023-03-25T04:02:39.971Z,99.99
2023-03-25T04:03:39.995Z,99.99
2023-03-25T04:04:39.931Z,99.99
2023-03-25T04:05:39.946Z,99.99
2023-03-25T04:06:39.960Z,99.99
2023-03-25T04:07:39.955Z,99.99
2023-03-25T04:08:39.948Z,99.99
2023-03-25T04:09:39.958Z,99.99
2023-03-25T04:10:39.970Z,99.99
2023-03-25T04:11:39.981Z,99.99
2023-03-25T04:12:39.965Z,99.99
2023-03-25T04:13:39.982Z,99.99
2023-03-25T04:14:39.979Z,99.99
2023-03-25T04:15:40.050Z,99.99
2023-03-25T04:16:40.021Z,99.99
2023-03-25T04:17:40.034Z,99.99
2023-03-25T04:18:39.993Z,99.99
2023-03-25T04:19:40.005Z,99.99
2023-03-25T04:20:40.004Z,99.99
2023-03-25T04:21:40.020Z,99.99
2023-03-25T04:22:40.043Z,99.99
2023-03-25T04:23:40.022Z,99.99
2023-03-25T04:24:40.034Z,99.99
2023-03-25T04:25:40.049Z,99.99
2023-03-25T04:26:40.055Z,99.99
2023-03-25T04:27:40.047Z,99.99
2023-03-25T04:28:40.052Z,99.99
2023-03-25T04:29:40.055Z,99.99
2023-03-25T04:30:40.055Z,99.99
2023-03-25T04:31:40.105Z,99.99
2023-03-25T04:32:40.091Z,99.99
2023-03-25T04:33:40.071Z,99.99
2023-03-25T04:34:40.085Z,99.99
2023-03-25T04:35:40.099Z,99.99
2023-03-25T04:36:40.074Z,99.99
2023-03-25T04:37:40.084Z,99.99
2023-03-25T04:38:40.109Z,99.99
2023-03-25T04:39:40.092Z,99.99
2023-03-25T04:40:40.093Z,99.99
2023-03-25T04:41:40.111Z,99.99
2023-03-25T04:42:40.099Z,99.99
2023-03-25T04:43:40.107Z,99.99
2023-03-25T04:44:40.109Z,99.99
2023-03-25T04:45:40.125Z,99.99
2023-03-25T04:46:40.118Z,99.99
2023-03-25T04:47:40.145Z,99.99
2023-03-25T04:48:40.125Z,99.99
2023-03-25T04:49:40.136Z,99.99
2023-03-25T04:50:40.133Z,99.99
2023-03-25T04:51:40.142Z,99.99
2023-03-25T04:52:40.146Z,99.99
2023-03-25T04:53:40.189Z,99.99
2023-03-25T04:54:40.222Z,99.99
2023-03-25T04:55:40.158Z,99.99
2023-03-25T04:56:40.244Z,99.99
2023-03-25T04:57:40.173Z,99.99
2023-03-25T04:58:40.169Z,99.99
2023-03-25T04:59:40.182Z,99.99
2023-03-25T05:00:40.177Z,99.99
2023-03-25T05:01:40.305Z,99.99
2023-03-25T05:02:40.207Z,99.99
2023-03-25T05:03:40.261Z,99.99
2023-03-25T05:04:40.253Z,99.99
2023-03-25T05:05:40.199Z,99.99
2023-03-25T05:06:40.231Z,99.99
2023-03-25T05:07:40.208Z,99.99
2023-03-25T05:08:40.259Z,99.99
2023-03-25T05:09:40.218Z,99.99
2023-03-25T05:10:40.238Z,99.99
2023-03-25T05:11:40.223Z,99.99
2023-03-25T05:12:40.223Z,99.99
2023-03-25T05:13:40.229Z,99.99
2023-03-25T05:14:40.233Z,99.99
2023-03-25T05:15:40.243Z,99.99
2023-03-25T05:16:40.262Z,99.99
2023-03-25T05:17:40.271Z,99.99
2023-03-25T05:18:40.247Z,99.99
2023-03-25T05:19:40.254Z,99.99
2023-03-25T05:20:40.260Z,99.99
2023-03-25T05:21:40.263Z,99.99
2023-03-25T05:22:40.263Z,99.99
2023-03-25T05:23:40.272Z,99.99
2023-03-25T05:24:40.275Z,99.99
2023-03-25T05:25:40.301Z,99.99
2023-03-25T05:26:40.316Z,99.99
2023-03-25T05:27:40.293Z,99.99
2023-03-25T05:28:40.289Z,99.99
2023-03-25T05:29:40.302Z,99.99
2023-03-25T05:30:40.294Z,99.99
2023-03-25T05:31:40.344Z,99.99
2023-03-25T05:32:40.354Z,99.99
2023-03-25T05:33:40.311Z,99.99
2023-03-25T05:34:40.327Z,99.99
2023-03-25T05:35:40.347Z,99.99
2023-03-25T05:36:40.325Z,99.99
2023-03-25T05:37:40.329Z,99.99
2023-03-25T05:38:40.344Z,99.99
2023-03-25T05:39:40.337Z,99.99
2023-03-25T05:40:40.388Z,99.99
2023-03-25T05:41:40.358Z,99.99
2023-03-25T05:42:40.370Z,99.99
2023-03-25T05:43:40.359Z,99.99
2023-03-25T05:44:40.350Z,99.99
2023-03-25T05:45:40.389Z,99.99
2023-03-25T05:46:40.360Z,99.99
2023-03-25T05:47:40.444Z,99.99
2023-03-25T05:48:40.369Z,99.99
2023-03-25T05:49:40.373Z,99.99
2023-03-25T05:50:40.387Z,99.99
2023-03-25T05:51:40.388Z,99.99
2023-03-25T05:52:40.381Z,99.99
2023-03-25T05:53:40.409Z,99.99
2023-03-25T05:54:40.393Z,99.99
2023-03-25T05:55:40.406Z,99.99
2023-03-25T05:56:40.426Z,96.88
2023-03-25T05:57:40.423Z,98.96
2023-03-25T05:58:40.431Z,99.99
2023-03-25T05:59:40.424Z,99.99
2023-03-25T06:00:40.432Z,99.43
2023-03-25T06:01:40.433Z,99.99
2023-03-25T06:02:40.517Z,99.99
2023-03-25T06:03:40.603Z,99.99
2023-03-25T06:04:40.434Z,99.99
2023-03-25T06:05:40.440Z,99.99
2023-03-25T06:06:40.442Z,99.99
2023-03-25T06:07:40.454Z,99.99
2023-03-25T06:08:40.449Z,99.99
2023-03-25T06:09:40.458Z,99.99
2023-03-25T06:10:40.458Z,99.99
2023-03-25T06:11:40.464Z,99.99
2023-03-25T06:12:40.475Z,99.99
2023-03-25T06:13:40.474Z,99.99
2023-03-25T06:14:40.496Z,99.99
2023-03-25T06:15:40.489Z,99.99
2023-03-25T06:16:40.487Z,99.99
2023-03-25T06:17:40.528Z,99.99
2023-03-25T06:18:40.490Z,99.99
2023-03-25T06:19:40.500Z,99.99
2023-03-25T06:20:40.497Z,99.99
2023-03-25T06:21:40.510Z,99.99
2023-03-25T06:22:40.509Z,99.99
2023-03-25T06:23:40.527Z,99.99
2023-03-25T06:24:40.525Z,99.99
2023-03-25T06:25:40.527Z,99.99
2023-03-25T06:26:40.524Z,99.99
2023-03-25T06:27:40.617Z,99.99
2023-03-25T06:28:40.533Z,99.99
2023-03-25T06:29:40.538Z,99.99
2023-03-25T06:30:40.562Z,99.99
2023-03-25T06:31:40.597Z,99.99
2023-03-25T06:32:40.557Z,99.99
2023-03-25T06:33:42.781Z,99.99
2023-03-25T06:34:40.556Z,99.99
2023-03-25T06:35:40.605Z,99.99
2023-03-25T06:36:40.581Z,99.99
2023-03-25T06:37:40.579Z,99.99
2023-03-25T06:38:40.586Z,99.99
2023-03-25T06:39:40.585Z,99.99
2023-03-25T06:40:40.582Z,99.99
2023-03-25T06:41:40.599Z,99.99
2023-03-25T06:42:40.592Z,99.99
2023-03-25T06:43:40.598Z,99.99
2023-03-25T06:44:40.604Z,99.99
2023-03-25T06:45:40.609Z,99.99
2023-03-25T06:46:40.687Z,99.99
2023-03-25T06:47:40.635Z,99.99
2023-03-25T06:48:40.618Z,99.99
2023-03-25T06:49:40.630Z,99.99
2023-03-25T06:50:42.647Z,99.99
2023-03-25T06:51:40.635Z,99.99
2023-03-25T06:52:40.675Z,99.99
2023-03-25T06:53:40.685Z,99.99
2023-03-25T06:54:40.650Z,99.99
2023-03-25T06:55:40.657Z,99.99
2023-03-25T06:56:40.678Z,99.99
2023-03-25T06:57:40.654Z,99.99
2023-03-25T06:58:40.660Z,99.99
2023-03-25T06:59:40.670Z,99.99
2023-03-25T07:00:40.663Z,99.99
2023-03-25T07:01:40.708Z,99.99
2023-03-25T07:02:40.776Z,99.99
2023-03-25T07:03:40.681Z,99.99
2023-03-25T07:04:40.681Z,99.99
2023-03-25T07:05:40.710Z,99.99
2023-03-25T07:06:40.696Z,99.99
2023-03-25T07:07:40.698Z,99.99
2023-03-25T07:08:40.697Z,99.99
2023-03-25T07:09:40.705Z,99.99
2023-03-25T07:10:40.705Z,99.99
2023-03-25T07:11:40.711Z,99.99
2023-03-25T07:12:40.713Z,99.99
2023-03-25T07:13:40.732Z,99.99
2023-03-25T07:14:40.726Z,99.99
2023-03-25T07:15:40.754Z,99.99
2023-03-25T07:16:40.752Z,99.99
2023-03-25T07:17:40.758Z,99.99
2023-03-25T07:18:40.763Z,99.99
2023-03-25T07:19:40.745Z,99.99
2023-03-25T07:20:46.191Z,99.99
2023-03-25T07:21:40.792Z,99.99
2023-03-25T07:22:40.756Z,99.99
2023-03-25T07:23:40.775Z,99.99
2023-03-25T07:24:40.762Z,99.99
2023-03-25T07:25:40.791Z,99.99
2023-03-25T07:26:40.782Z,97.25
2023-03-25T07:27:40.837Z,97.25
2023-03-25T07:28:40.890Z,98.29
2023-03-25T07:29:40.800Z,98.48
2023-03-25T07:30:40.821Z,98.01
2023-03-25T07:31:40.803Z,97.16
2023-03-25T07:32:40.813Z,96.59
2023-03-25T07:33:40.807Z,95.74
2023-03-25T07:34:40.825Z,93.56
2023-03-25T07:35:40.862Z,91.86
2023-03-25T07:36:40.810Z,91.10
2023-03-25T07:37:40.825Z,91.77
2023-03-25T07:38:40.826Z,91.86
2023-03-25T07:39:40.832Z,91.01
2023-03-25T07:40:40.845Z,92.71
2023-03-25T07:41:40.833Z,93.09
2023-03-25T07:42:40.844Z,92.99
2023-03-25T07:43:40.843Z,94.79
2023-03-25T07:44:40.874Z,94.89
2023-03-25T07:45:44.403Z,92.05
2023-03-25T07:46:40.939Z,92.61
2023-03-25T07:47:40.898Z,92.52
2023-03-25T07:48:40.870Z,92.43
2023-03-25T07:49:40.885Z,93.47
2023-03-25T07:50:40.890Z,95.26
2023-03-25T07:51:40.882Z,96.12
2023-03-25T07:52:40.883Z,95.55
2023-03-25T07:53:40.893Z,95.45
2023-03-25T07:54:40.891Z,94.70
2023-03-25T07:55:40.987Z,96.59
2023-03-25T07:56:40.946Z,97.06
2023-03-25T07:57:40.918Z,97.63
2023-03-25T07:58:40.910Z,97.30
2023-03-25T07:59:40.914Z,97.30
2023-03-25T08:00:40.924Z,98.34
2023-03-25T08:01:40.959Z,99.10
2023-03-25T08:02:40.993Z,99.99
2023-03-25T08:03:41.098Z,99.99
2023-03-25T08:04:40.935Z,99.99
2023-03-25T08:05:40.935Z,99.99
2023-03-25T08:06:40.963Z,99.99
2023-03-25T08:07:40.946Z,99.99
2023-03-25T08:08:40.953Z,99.99
2023-03-25T08:09:40.973Z,99.99
2023-03-25T08:10:40.966Z,99.99
2023-03-25T08:11:40.974Z,99.99
2023-03-25T08:12:40.969Z,99.99
2023-03-25T08:13:41.002Z,99.99
2023-03-25T08:14:40.984Z,99.99
2023-03-25T08:15:40.988Z,99.99
2023-03-25T08:16:41.179Z,99.99
2023-03-25T08:17:41.046Z,99.99
2023-03-25T08:18:41.012Z,99.99
2023-03-25T08:19:40.994Z,99.99
2023-03-25T08:20:41.019Z,99.99
2023-03-25T08:21:41.004Z,99.99
2023-03-25T08:22:41.058Z,99.99
2023-03-25T08:23:41.015Z,99.99
2023-03-25T08:24:41.030Z,99.99
2023-03-25T08:25:41.061Z,99.99
2023-03-25T08:26:41.028Z,99.99
2023-03-25T08:27:41.078Z,99.99
2023-03-25T08:28:41.035Z,99.99
2023-03-25T08:29:41.040Z,99.99
2023-03-25T08:30:41.075Z,99.99
2023-03-25T08:31:41.094Z,99.99
2023-03-25T08:32:41.096Z,99.99
2023-03-25T08:33:41.370Z,99.99
2023-03-25T08:34:41.064Z,99.99
2023-03-25T08:35:41.085Z,99.99
2023-03-25T08:36:41.075Z,99.99
2023-03-25T08:37:41.078Z,99.99
2023-03-25T08:38:41.105Z,99.99
2023-03-25T08:39:41.090Z,96.73
2023-03-25T08:40:41.096Z,93.23
2023-03-25T08:41:41.095Z,95.69
2023-03-25T08:42:41.105Z,94.04
2023-03-25T08:43:41.105Z,97.39
2023-03-25T08:44:41.113Z,99.99
2023-03-25T08:45:41.148Z,99.76
2023-03-25T08:46:41.166Z,94.84
2023-03-25T08:47:41.178Z,92.99
2023-03-25T08:48:41.136Z,92.57
2023-03-25T08:49:41.137Z,93.61
2023-03-25T08:50:41.144Z,94.93
2023-03-25T08:51:41.147Z,93.89
2023-03-25T08:52:41.171Z,91.72
2023-03-25T08:53:41.156Z,90.30
2023-03-25T08:54:41.184Z,92.19
2023-03-25T08:55:41.181Z,92.66
2023-03-25T08:56:41.197Z,94.74
2023-03-25T08:57:41.180Z,95.03
2023-03-25T08:58:41.194Z,91.81
2023-03-25T08:59:41.190Z,88.59
2023-03-25T09:00:41.194Z,89.25
2023-03-25T09:01:41.236Z,89.06
2023-03-25T09:02:41.262Z,88.78
2023-03-25T09:03:41.204Z,88.49
2023-03-25T09:04:41.218Z,87.93
2023-03-25T09:05:41.270Z,88.45
2023-03-25T09:06:47.623Z,88.07
2023-03-25T09:07:41.231Z,86.93
2023-03-25T09:08:41.258Z,87.98
2023-03-25T09:09:41.358Z,89.96
2023-03-25T09:10:41.272Z,91.48
2023-03-25T09:11:41.271Z,95.36
2023-03-25T09:12:41.258Z,99.99
2023-03-25T09:13:41.273Z,99.99
2023-03-25T09:14:41.282Z,99.99
2023-03-25T09:15:41.295Z,99.99
2023-03-25T09:16:41.283Z,99.99
2023-03-25T09:17:41.308Z,99.99
2023-03-25T09:18:41.291Z,99.99
2023-03-25T09:19:41.310Z,99.99
2023-03-25T09:20:41.369Z,99.99
2023-03-25T09:21:41.300Z,99.99
2023-03-25T09:22:41.318Z,97.16
2023-03-25T09:23:41.324Z,95.45
2023-03-25T09:24:41.324Z,93.94
2023-03-25T09:25:41.327Z,96.31
2023-03-25T09:26:41.355Z,99.33
2023-03-25T09:27:41.348Z,99.99
2023-03-25T09:28:41.345Z,99.99
2023-03-25T09:29:41.345Z,95.40
2023-03-25T09:30:41.362Z,96.07
2023-03-25T09:31:41.387Z,97.49
2023-03-25T09:32:41.401Z,99.95
2023-03-25T09:33:41.401Z,99.99
2023-03-25T09:34:41.375Z,99.99
2023-03-25T09:35:41.483Z,99.99
2023-03-25T09:36:41.395Z,99.99
2023-03-25T09:37:41.394Z,99.99
2023-03-25T09:38:41.401Z,99.99
2023-03-25T09:39:41.401Z,99.99
2023-03-25T09:40:41.411Z,99.99
2023-03-25T09:41:41.414Z,99.99
2023-03-25T09:42:41.447Z,99.99
2023-03-25T09:43:41.429Z,99.99
2023-03-25T09:44:41.437Z,99.99
2023-03-25T09:45:41.434Z,99.99
2023-03-25T09:46:41.464Z,99.99
2023-03-25T09:47:41.489Z,99.99
2023-03-25T09:48:41.456Z,99.99
2023-03-25T09:49:41.474Z,99.99
2023-03-25T09:50:41.464Z,99.99
2023-03-25T09:51:41.516Z,99.99
2023-03-25T09:52:41.474Z,99.99
2023-03-25T09:53:41.476Z,99.99
2023-03-25T09:54:41.488Z,99.99
2023-03-25T09:55:41.491Z,99.99
2023-03-25T09:56:41.832Z,99.99
2023-03-25T09:57:41.502Z,99.99
2023-03-25T09:58:41.577Z,99.99
2023-03-25T09:59:41.526Z,99.99
2023-03-25T10:00:41.533Z,99.99
2023-03-25T10:01:41.586Z,99.99
2023-03-25T10:02:42.085Z,99.99
2023-03-25T10:03:41.533Z,99.99
2023-03-25T10:04:41.543Z,99.99
2023-03-25T10:05:41.545Z,99.99
2023-03-25T10:06:41.552Z,99.99
2023-03-25T10:07:41.557Z,99.99
2023-03-25T10:08:41.561Z,99.99
2023-03-25T10:09:41.566Z,99.99
2023-03-25T10:10:41.636Z,99.99
2023-03-25T10:11:41.581Z,99.99
2023-03-25T10:12:41.644Z,99.99
2023-03-25T10:13:41.642Z,99.99
2023-03-25T10:14:41.628Z,99.99
2023-03-25T10:15:41.619Z,99.99
2023-03-25T10:16:41.650Z,99.99
2023-03-25T10:17:41.633Z,99.99
2023-03-25T10:18:41.618Z,99.99
2023-03-25T10:19:41.624Z,99.99
2023-03-25T10:20:41.632Z,99.99
2023-03-25T10:21:41.644Z,99.99
2023-03-25T10:22:41.641Z,99.99
2023-03-25T10:23:41.670Z,99.99
2023-03-25T10:24:41.652Z,99.99
2023-03-25T10:25:41.673Z,99.99
2023-03-25T10:26:41.662Z,99.99
2023-03-25T10:27:41.670Z,99.99
2023-03-25T10:28:41.674Z,99.99
2023-03-25T10:29:41.685Z,99.99
2023-03-25T10:30:41.736Z,99.99
2023-03-25T10:31:41.801Z,99.99
2023-03-25T10:32:41.711Z,99.99
2023-03-25T10:33:41.779Z,96.92
2023-03-25T10:34:41.710Z,99.99
2023-03-25T10:35:41.723Z,92.76
2023-03-25T10:36:41.726Z,91.90
2023-03-25T10:37:41.719Z,92.19
2023-03-25T10:38:41.727Z,92.57
2023-03-25T10:39:41.730Z,99.77
2023-03-25T10:40:41.741Z,99.99
2023-03-25T10:41:41.742Z,99.99
2023-03-25T10:42:41.749Z,99.99
2023-03-25T10:43:41.799Z,98.30
2023-03-25T10:44:41.761Z,99.99
2023-03-25T10:45:41.810Z,98.35
2023-03-25T10:46:41.788Z,98.91
2023-03-25T10:47:41.795Z,99.10
2023-03-25T10:48:41.800Z,95.60
2023-03-25T10:49:41.809Z,93.23
2023-03-25T10:50:41.803Z,93.04
2023-03-25T10:51:41.799Z,91.33
2023-03-25T10:52:41.809Z,91.90
2023-03-25T10:53:41.823Z,95.50
2023-03-25T10:54:41.819Z,99.99
2023-03-25T10:55:41.820Z,99.99
2023-03-25T10:56:41.871Z,99.99
2023-03-25T10:57:41.828Z,99.99
2023-03-25T10:58:41.849Z,99.99
2023-03-25T10:59:41.841Z,99.99
2023-03-25T11:00:41.856Z,99.29
2023-03-25T11:01:41.888Z,98.25
2023-03-25T11:02:41.967Z,99.99
2023-03-25T11:03:41.862Z,99.99
2023-03-25T11:04:41.869Z,99.99
2023-03-25T11:05:41.873Z,99.99
2023-03-25T11:06:41.887Z,95.98
2023-03-25T11:07:41.884Z,93.18
2023-03-25T11:08:41.893Z,91.38
2023-03-25T11:09:41.896Z,95.83
2023-03-25T11:10:41.904Z,95.60
2023-03-25T11:11:41.948Z,96.73
2023-03-25T11:12:43.510Z,92.85
2023-03-25T11:13:41.917Z,90.01
2023-03-25T11:14:41.927Z,86.50
2023-03-25T11:15:41.974Z,90.58
2023-03-25T11:16:42.042Z,89.72
2023-03-25T11:17:41.982Z,91.05
2023-03-25T11:18:41.993Z,92.00
2023-03-25T11:19:41.952Z,94.56
2023-03-25T11:20:41.966Z,93.23
2023-03-25T11:21:41.967Z,91.90
2023-03-25T11:22:41.974Z,91.43
2023-03-25T11:23:41.972Z,94.46
2023-03-25T11:24:41.986Z,98.06
2023-03-25T11:25:42.096Z,96.07
2023-03-25T11:26:41.993Z,91.71
2023-03-25T11:27:41.998Z,90.48
2023-03-25T11:28:42.008Z,91.33
2023-03-25T11:29:42.009Z,91.14
2023-03-25T11:30:42.066Z,91.90
2023-03-25T11:31:42.029Z,92.57
2023-03-25T11:32:42.059Z,92.28
2023-03-25T11:33:42.100Z,91.14
2023-03-25T11:34:42.557Z,92.94
2023-03-25T11:35:42.101Z,93.08
2023-03-25T11:36:42.049Z,94.89
2023-03-25T11:37:42.052Z,99.33
2023-03-25T11:38:42.079Z,99.81
2023-03-25T11:39:42.067Z,99.99
2023-03-25T11:40:42.082Z,99.99
2023-03-25T11:41:42.075Z,99.99
2023-03-25T11:42:42.089Z,99.99
2023-03-25T11:43:42.097Z,99.99
2023-03-25T11:44:42.098Z,98.96
2023-03-25T11:45:42.098Z,99.15
2023-03-25T11:46:42.161Z,99.99
2023-03-25T11:47:42.273Z,99.99
2023-03-25T11:48:42.125Z,99.99
2023-03-25T11:49:42.130Z,99.99
2023-03-25T11:50:42.154Z,99.99
2023-03-25T11:51:42.135Z,99.99
2023-03-25T11:52:42.143Z,99.52
2023-03-25T11:53:42.146Z,99.99
2023-03-25T11:54:42.152Z,99.99
2023-03-25T11:55:42.155Z,99.99
2023-03-25T11:56:42.178Z,97.59
2023-03-25T11:57:42.171Z,90.20
2023-03-25T11:58:42.186Z,88.87
2023-03-25T11:59:42.181Z,89.72
2023-03-25T12:00:42.183Z,96.73
2023-03-25T12:01:42.209Z,94.23
2023-03-25T12:02:42.287Z,97.73
2023-03-25T12:03:42.270Z,99.30
2023-03-25T12:04:42.206Z,99.99
2023-03-25T12:05:42.232Z,97.59
2023-03-25T12:06:42.298Z,92.57
2023-03-25T12:07:42.236Z,89.39
2023-03-25T12:08:42.309Z,91.76
2023-03-25T12:09:42.242Z,94.04
2023-03-25T12:10:42.242Z,93.65
2023-03-25T12:11:42.898Z,91.28
2023-03-25T12:12:42.260Z,94.13
2023-03-25T12:13:42.263Z,96.03
2023-03-25T12:14:42.266Z,91.09
2023-03-25T12:15:42.281Z,90.05
2023-03-25T12:16:42.375Z,91.95
2023-03-25T12:17:42.324Z,91.43
2023-03-25T12:18:42.290Z,97.21
2023-03-25T12:19:42.301Z,95.22
2023-03-25T12:20:42.318Z,99.01
2023-03-25T12:21:42.317Z,97.30
2023-03-25T12:22:42.339Z,96.83
2023-03-25T12:23:42.323Z,96.92
2023-03-25T12:24:42.328Z,99.99
2023-03-25T12:25:42.342Z,99.99
2023-03-25T12:26:42.375Z,99.99
2023-03-25T12:27:42.358Z,99.99
2023-03-25T12:28:42.354Z,99.99
2023-03-25T12:29:42.369Z,99.99
2023-03-25T12:30:42.380Z,99.99
2023-03-25T12:31:42.399Z,99.99
2023-03-25T12:32:42.394Z,99.99
2023-03-25T12:33:42.388Z,99.99
2023-03-25T12:34:42.393Z,99.99
2023-03-25T12:35:42.485Z,99.99
2023-03-25T12:36:42.400Z,99.99
2023-03-25T12:37:42.418Z,99.99
2023-03-25T12:38:42.430Z,99.99
2023-03-25T12:39:43.683Z,99.99
2023-03-25T12:40:42.444Z,99.99
2023-03-25T12:41:42.434Z,99.99
2023-03-25T12:42:42.445Z,99.99
2023-03-25T12:43:42.449Z,99.99
2023-03-25T12:44:42.457Z,99.99
2023-03-25T12:45:42.491Z,99.99
2023-03-25T12:46:42.464Z,99.99
2023-03-25T12:47:42.493Z,99.99
2023-03-25T12:48:42.474Z,99.99
2023-03-25T12:49:42.480Z,99.99
2023-03-25T12:50:42.490Z,99.99
2023-03-25T12:51:42.509Z,99.99
2023-03-25T12:52:42.496Z,99.99